»·PEaware :: N413C KYKM-KGEG

N413C :: KYKM-KGEG

FLIGHT INFORMATION

Flight Status: Arrived
Operator: Privately registered:
United States
More flights under this callsign
Pilot: Alec D. (17934)
Aircraft: PIPER PA-34 SENECA
(PA34)
More flights by this aircraft type
Origin: KYKM Yakima Air Term/Mcallister
United States
Destination: KGEG Spokane Intl
United States
More flights between these airports :: More routes between these airports
Route: +
File this flight plan on PilotEdge
Remarks:
Altitude:
(Current/Filed)
5,500ft
Speed:
(Current/Filed)
0kts
Departed: 25-Mar-18 05:02 PM
Arrived: 25-Mar-18 05:59 PM
Distance/Time
Traveled:
139nm/0:57
Distance/Time
To Go:
Arrived

Flight Plot

Page will automatically refresh every two minutes.

Flight plan parsing failed; only flown route is shown


Map Options




Map Legend


Flown Route
Filed Route
Departure Airport
Arrival Airport
Navaid (VOR, NDB)
Fix

Horizontal Profiles

Position Reports

Time Latitude Longitude Heading Altitude Ground
Speed
25-Mar-18 16:51 46.570146 -120.543297 357 1098ft 0kts
25-Mar-18 16:52 46.569673 -120.543251 151 1098ft 0kts
25-Mar-18 16:53 46.569977 -120.546318 293 1098ft 15kts
25-Mar-18 16:54 46.571511 -120.552465 290 1098ft 16kts
25-Mar-18 16:55 46.573013 -120.558476 272 1098ft 10kts
25-Mar-18 16:56 46.572996 -120.558720 256 1098ft 0kts
25-Mar-18 16:57 46.572986 -120.558779 253 1098ft 0kts
25-Mar-18 16:58 46.572965 -120.558871 248 1098ft 0kts
25-Mar-18 16:59 46.572964 -120.558874 248 1098ft 0kts
25-Mar-18 17:00 46.572963 -120.558877 249 1098ft 0kts
25-Mar-18 17:01 46.571532 -120.555443 111 1098ft 60kts
25-Mar-18 17:02 46.561120 -120.515743 108 1907ft 129kts
25-Mar-18 17:03 46.551750 -120.467527 100 2961ft 123kts
25-Mar-18 17:04 46.545645 -120.426687 95 3637ft 119kts
25-Mar-18 17:05 46.538846 -120.374239 94 4971ft 117kts
25-Mar-18 17:06 46.534953 -120.332901 92 5494ft 136kts
25-Mar-18 17:07 46.531974 -120.270013 92 5479ft 166kts
25-Mar-18 17:08 46.528473 -120.189992 92 5485ft 172kts
25-Mar-18 17:09 46.523168 -120.132146 100 5483ft 174kts
25-Mar-18 17:10 46.511224 -120.063956 103 5483ft 174kts
25-Mar-18 17:11 46.499672 -119.995282 95 5493ft 174kts
25-Mar-18 17:12 46.498608 -119.924306 90 5471ft 177kts
25-Mar-18 17:13 46.501983 -119.853379 62 5456ft 175kts
25-Mar-18 17:14 46.535437 -119.804318 36 5470ft 171kts
25-Mar-18 17:15 46.571349 -119.759083 36 5471ft 170kts
25-Mar-18 17:16 46.607064 -119.714197 36 5472ft 168kts
25-Mar-18 17:17 46.642508 -119.669591 37 5473ft 168kts
25-Mar-18 17:18 46.673152 -119.617197 47 5473ft 170kts
25-Mar-18 17:19 46.703017 -119.563326 48 5471ft 170kts
25-Mar-18 17:20 46.731739 -119.508237 50 5473ft 171kts
25-Mar-18 17:21 46.758537 -119.451050 54 5474ft 171kts
25-Mar-18 17:22 46.783536 -119.391512 56 5452ft 171kts
25-Mar-18 17:23 46.806999 -119.331746 57 5506ft 169kts
25-Mar-18 17:24 46.830713 -119.271828 56 5507ft 170kts
25-Mar-18 17:25 46.855603 -119.212939 54 5505ft 170kts
25-Mar-18 17:26 46.882066 -119.155169 52 5504ft 171kts
25-Mar-18 17:27 46.909769 -119.098400 51 5504ft 170kts
25-Mar-18 17:28 46.937443 -119.042065 52 5513ft 170kts
25-Mar-18 17:29 46.964415 -118.984767 53 5500ft 171kts
25-Mar-18 17:30 46.990328 -118.926101 54 5496ft 171kts
25-Mar-18 17:31 47.015504 -118.867054 55 5496ft 171kts
25-Mar-18 17:32 47.040694 -118.807965 54 5497ft 171kts
25-Mar-18 17:33 47.066481 -118.749219 53 5496ft 171kts
25-Mar-18 17:34 47.092786 -118.691224 53 5491ft 171kts
25-Mar-18 17:35 47.119258 -118.633280 52 5484ft 170kts
25-Mar-18 17:36 47.145525 -118.575239 53 5476ft 170kts
25-Mar-18 17:37 47.171540 -118.517036 53 5475ft 170kts
25-Mar-18 17:38 47.197587 -118.458411 53 5474ft 170kts
25-Mar-18 17:39 47.223580 -118.399610 53 5472ft 171kts
25-Mar-18 17:40 47.249767 -118.340658 53 5465ft 173kts
25-Mar-18 17:41 47.276150 -118.281201 53 5464ft 174kts
25-Mar-18 17:42 47.302307 -118.221127 52 5461ft 172kts
25-Mar-18 17:43 47.327192 -118.162908 50 5456ft 165kts
25-Mar-18 17:44 47.352800 -118.107330 49 5458ft 163kts
25-Mar-18 17:45 47.378196 -118.051903 50 5452ft 163kts
25-Mar-18 17:46 47.402714 -117.995835 51 5456ft 162kts
25-Mar-18 17:47 47.427073 -117.939812 50 5454ft 162kts
25-Mar-18 17:48 47.451934 -117.883785 50 5349ft 163kts
25-Mar-18 17:49 47.476855 -117.827358 50 4865ft 164kts
25-Mar-18 17:50 47.502335 -117.770399 52 4343ft 168kts
25-Mar-18 17:51 47.527703 -117.711901 54 3832ft 170kts
25-Mar-18 17:52 47.552015 -117.652230 58 3451ft 167kts
25-Mar-18 17:53 47.574352 -117.594097 36 3433ft 154kts
25-Mar-18 17:54 47.609212 -117.561988 24 3295ft 136kts
25-Mar-18 17:55 47.636225 -117.531854 34 3113ft 115kts
25-Mar-18 17:56 47.649280 -117.499308 146 2572ft 100kts
25-Mar-18 17:57 47.632163 -117.516857 229 2432ft 76kts
25-Mar-18 17:58 47.625504 -117.524915 142 2375ft 7kts
25-Mar-18 17:59 47.624790 -117.524285 189 2375ft 10kts
25-Mar-18 18:00 47.622197 -117.527958 225 2375ft 10kts
25-Mar-18 18:01 47.620728 -117.526025 86 2375ft 9kts
25-Mar-18 18:02 47.620868 -117.525948 352 2375ft 0kts
25-Mar-18 18:03 47.620869 -117.525948 352 2375ft 0kts

Navigation Log

Ident Type
Flight plan parsing failed, navigation log unavailable